Time;durP1;ratioP1;P1;durP2;ratioP2;P2;SDS_P1;SDS_P2;PMS_P1;PMS_P2;Temp;Humidity;BMP_temperature;BMP_pressure;BME280_temperature;BME280_humidity;BME280_pressure;Samples;Min_cycle;Max_cycle;Signal;HPM_P1;HPM_P2
2022/01/18 00:01:57;;;;;;;16.73;5.80;;;;;;;;;;4972725;28;20170;-51
2022/01/18 00:04:23;;;;;;;18.47;4.93;;;;;;;;;;4972686;28;20401;-52
2022/01/18 00:06:52;;;;;;;15.20;4.90;;;;;;;;;;4972631;28;20397;-52
2022/01/18 00:09:21;;;;;;;26.67;5.80;;;;;;;;;;4972200;28;20195;-51
2022/01/18 00:11:59;;;;;;;23.47;6.90;;;;;;;;;;4972490;28;20393;-50
2022/01/18 00:14:41;;;;;;;16.43;4.60;;;;;;;;;;4971594;28;20460;-51
2022/01/18 00:17:24;;;;;;;17.83;5.07;;;;;;;;;;4972608;28;20397;-50
2022/01/18 00:19:56;;;;;;;33.17;7.90;;;;;;;;;;4972273;28;20399;-50
2022/01/18 00:22:23;;;;;;;18.80;4.33;;;;;;;;;;4972431;28;20436;-50
2022/01/18 00:24:50;;;;;;;25.40;5.10;;;;;;;;;;4972449;28;20408;-50
2022/01/18 00:27:17;;;;;;;15.23;4.70;;;;;;;;;;4972301;28;20405;-51
2022/01/18 00:29:55;;;;;;;18.50;4.70;;;;;;;;;;4971903;28;20187;-50
2022/01/18 00:32:44;;;;;;;16.13;6.17;;;;;;;;;;4971557;28;20403;-51
2022/01/18 00:35:07;;;;;;;23.37;4.83;;;;;;;;;;4972148;28;20416;-51
2022/01/18 00:37:35;;;;;;;27.43;5.90;;;;;;;;;;4972204;28;20964;-51
2022/01/18 00:40:03;;;;;;;18.25;4.38;;;;;;;;;;4972029;28;20498;-51
2022/01/18 00:42:29;;;;;;;11.40;4.07;;;;;;;;;;4972123;28;20178;-51
2022/01/18 00:44:55;;;;;;;17.03;5.00;;;;;;;;;;4971214;28;20260;-51
2022/01/18 00:47:23;;;;;;;12.50;4.63;;;;;;;;;;4972052;28;20441;-50
2022/01/18 00:49:56;;;;;;;12.97;4.70;;;;;;;;;;4971941;28;20725;-50
2022/01/18 00:52:24;;;;;;;20.57;4.47;;;;;;;;;;4972122;28;20393;-51
2022/01/18 00:54:50;;;;;;;15.47;5.47;;;;;;;;;;4972058;28;20393;-51
2022/01/18 00:57:16;;;;;;;18.77;6.07;;;;;;;;;;4971917;28;20837;-52
2022/01/18 00:59:44;;;;;;;30.67;6.33;;;;;;;;;;4971918;28;20439;-52
2022/01/18 01:02:10;;;;;;;16.33;4.03;;;;;;;;;;4972077;28;20405;-50
2022/01/18 01:04:41;;;;;;;23.30;3.87;;;;;;;;;;4972127;28;20902;-50
2022/01/18 01:07:07;;;;;;;17.63;5.00;;;;;;;;;;4972428;28;20933;-52
2022/01/18 01:09:33;;;;;;;17.53;4.53;;;;;;;;;;4971726;28;20528;-50
2022/01/18 01:11:59;;;;;;;24.13;5.50;;;;;;;;;;4972088;28;20465;-50
2022/01/18 01:14:27;;;;;;;20.10;5.50;;;;;;;;;;4971328;28;20987;-51
2022/01/18 01:17:09;;;;;;;26.17;5.20;;;;;;;;;;4972181;28;20409;-50
2022/01/18 01:36:04;;;;;;;28.10;6.37;;;;;;;;;;4975447;28;20488;-51
2022/01/18 01:44:18;;;;;;;23.87;4.60;;;;;;;;;;4974123;28;20241;-51
2022/01/18 01:46:45;;;;;;;12.37;3.90;;;;;;;;;;4975103;28;20402;-51
2022/01/18 01:49:13;;;;;;;22.77;5.40;;;;;;;;;;4974709;28;20627;-51
2022/01/18 01:51:40;;;;;;;9.30;3.50;;;;;;;;;;4975032;28;20444;-51
2022/01/18 01:54:07;;;;;;;32.47;7.93;;;;;;;;;;4975047;28;20400;-51
2022/01/18 01:56:33;;;;;;;24.47;6.37;;;;;;;;;;4974958;28;20786;-50
2022/01/18 01:58:59;;;;;;;18.35;4.18;;;;;;;;;;4974536;28;20449;-51
2022/01/18 02:01:26;;;;;;;15.13;4.50;;;;;;;;;;4974684;28;20174;-51
2022/01/18 02:03:52;;;;;;;13.80;3.33;;;;;;;;;;4974783;28;20807;-50
2022/01/18 02:06:18;;;;;;;7.75;3.30;;;;;;;;;;4974798;28;20433;-50
2022/01/18 02:08:45;;;;;;;10.10;3.10;;;;;;;;;;4974170;28;20250;-50
2022/01/18 02:11:11;;;;;;;10.00;3.37;;;;;;;;;;4974502;28;20407;-50
2022/01/18 02:13:37;;;;;;;24.30;4.07;;;;;;;;;;4973690;28;20441;-51
2022/01/18 02:24:00;;;;;;;7.77;2.23;;;;;;;;;;4974532;28;20221;-50
2022/01/18 02:26:25;;;;;;;21.38;3.13;;;;;;;;;;4974382;28;20408;-51
2022/01/18 02:28:51;;;;;;;7.90;3.03;;;;;;;;;;4974161;28;20205;-50
2022/01/18 02:31:20;;;;;;;12.40;3.33;;;;;;;;;;4974509;28;20976;-50
2022/01/18 02:33:46;;;;;;;13.50;3.17;;;;;;;;;;4974550;28;20409;-50
2022/01/18 02:36:12;;;;;;;16.27;3.10;;;;;;;;;;4974615;28;20414;-50
2022/01/18 02:38:38;;;;;;;10.80;3.80;;;;;;;;;;4974379;28;20775;-50
2022/01/18 02:41:06;;;;;;;12.33;3.27;;;;;;;;;;4974054;28;20504;-50
2022/01/18 02:43:47;;;;;;;18.53;3.13;;;;;;;;;;4973068;28;20902;-52
2022/01/18 02:46:13;;;;;;;9.80;2.80;;;;;;;;;;4973291;28;20405;-50
2022/01/18 02:48:39;;;;;;;19.73;3.40;;;;;;;;;;4973804;28;20501;-50
2022/01/18 02:51:05;;;;;;;23.30;3.80;;;;;;;;;;4973845;28;20212;-51
2022/01/18 02:53:31;;;;;;;9.83;2.97;;;;;;;;;;4973815;28;20407;-50
2022/01/18 02:55:58;;;;;;;12.50;3.60;;;;;;;;;;4973795;28;20882;-50
2022/01/18 02:58:32;;;;;;;22.05;4.63;;;;;;;;;;4973638;28;20446;-51
2022/01/18 03:03:34;;;;;;;11.80;4.77;;;;;;;;;;4973790;28;20177;-51
2022/01/18 03:06:01;;;;;;;17.63;3.70;;;;;;;;;;4973645;28;20406;-50
2022/01/18 03:08:27;;;;;;;9.47;4.13;;;;;;;;;;4973568;28;20510;-51
2022/01/18 03:10:53;;;;;;;20.00;4.80;;;;;;;;;;4973372;28;20504;-51
2022/01/18 03:13:19;;;;;;;16.43;4.50;;;;;;;;;;4972828;28;20650;-51
2022/01/18 03:15:46;;;;;;;21.25;3.45;;;;;;;;;;4973509;28;20752;-51
2022/01/18 03:18:12;;;;;;;13.40;4.40;;;;;;;;;;4973358;28;20185;-51
2022/01/18 03:20:38;;;;;;;13.18;4.05;;;;;;;;;;4973112;28;20262;-51
2022/01/18 03:23:09;;;;;;;20.50;4.43;;;;;;;;;;4973303;28;20171;-51
2022/01/18 03:28:06;;;;;;;9.90;4.20;;;;;;;;;;4972590;28;20208;-50
2022/01/18 03:30:40;;;;;;;18.93;4.47;;;;;;;;;;4972949;28;20535;-51
2022/01/18 03:33:07;;;;;;;12.33;4.20;;;;;;;;;;4973085;28;20548;-51
2022/01/18 03:35:33;;;;;;;20.93;5.10;;;;;;;;;;4972161;28;20469;-50
2022/01/18 03:37:59;;;;;;;16.30;5.70;;;;;;;;;;4973017;28;20442;-51
2022/01/18 03:40:25;;;;;;;10.50;4.80;;;;;;;;;;4972769;28;20424;-51
2022/01/18 03:42:52;;;;;;;15.27;4.45;;;;;;;;;;4972944;28;20410;-51
2022/01/18 03:45:20;;;;;;;24.03;4.70;;;;;;;;;;4973052;28;20665;-51
2022/01/18 03:50:49;;;;;;;24.03;4.43;;;;;;;;;;4972586;28;20420;-51
2022/01/18 03:53:18;;;;;;;18.43;6.37;;;;;;;;;;4972806;28;20400;-51
2022/01/18 03:55:44;;;;;;;23.73;5.85;;;;;;;;;;4972628;28;20860;-50
2022/01/18 03:58:10;;;;;;;18.97;6.70;;;;;;;;;;4972780;28;20341;-50
2022/01/18 04:00:36;;;;;;;25.67;7.22;;;;;;;;;;4972682;28;20436;-50
2022/01/18 04:03:02;;;;;;;14.73;5.97;;;;;;;;;;4972723;28;20206;-50
2022/01/18 04:05:28;;;;;;;17.83;6.80;;;;;;;;;;4972291;28;20402;-53
2022/01/18 04:07:54;;;;;;;20.07;6.83;;;;;;;;;;4972053;28;21097;-51
2022/01/18 04:10:20;;;;;;;21.50;8.03;;;;;;;;;;4972643;28;20988;-51
2022/01/18 04:12:46;;;;;;;16.63;8.32;;;;;;;;;;4972770;28;20437;-54
2022/01/18 04:15:13;;;;;;;29.43;7.93;;;;;;;;;;4972683;28;20183;-50
2022/01/18 04:30:51;;;;;;;21.90;7.15;;;;;;;;;;4972411;28;20180;-51
2022/01/18 04:33:17;;;;;;;22.37;7.27;;;;;;;;;;4972463;28;20174;-51
2022/01/18 04:35:43;;;;;;;18.95;8.15;;;;;;;;;;4972371;28;20424;-51
2022/01/18 04:38:09;;;;;;;14.00;6.50;;;;;;;;;;4972251;28;20197;-50
2022/01/18 04:40:39;;;;;;;17.85;6.75;;;;;;;;;;4971998;28;20170;-51
2022/01/18 04:43:13;;;;;;;14.70;7.20;;;;;;;;;;4971146;28;20175;-50
2022/01/18 04:48:27;;;;;;;19.23;5.87;;;;;;;;;;4972351;28;20420;-51
2022/01/18 04:50:54;;;;;;;18.10;7.23;;;;;;;;;;4971919;28;20397;-52
2022/01/18 04:53:21;;;;;;;25.73;5.53;;;;;;;;;;4972044;28;20878;-51
2022/01/18 04:55:53;;;;;;;12.02;4.82;;;;;;;;;;4972154;28;20437;-51
2022/01/18 04:58:19;;;;;;;15.90;4.40;;;;;;;;;;4971925;28;20277;-50
2022/01/18 05:00:45;;;;;;;16.05;5.70;;;;;;;;;;4971870;28;20825;-50
2022/01/18 05:03:11;;;;;;;17.17;5.30;;;;;;;;;;4972058;28;20177;-51
2022/01/18 05:05:37;;;;;;;15.80;4.37;;;;;;;;;;4971972;28;20928;-50
2022/01/18 05:08:05;;;;;;;12.15;4.72;;;;;;;;;;4971888;28;20472;-50
2022/01/18 05:10:32;;;;;;;25.00;6.90;;;;;;;;;;4975499;28;20260;-51
2022/01/18 05:13:00;;;;;;;9.10;5.15;;;;;;;;;;4975714;28;20885;-51
2022/01/18 05:23:16;;;;;;;21.08;6.30;;;;;;;;;;4984198;28;20214;-53
2022/01/18 05:25:45;;;;;;;18.43;7.20;;;;;;;;;;4984764;28;20174;-52
2022/01/18 05:28:11;;;;;;;22.73;7.28;;;;;;;;;;4984390;28;20421;-52
2022/01/18 05:30:37;;;;;;;19.00;6.97;;;;;;;;;;4983787;28;20261;-52
2022/01/18 05:33:03;;;;;;;21.43;6.43;;;;;;;;;;4985155;28;20405;-52
2022/01/18 05:35:29;;;;;;;18.67;6.22;;;;;;;;;;4984834;28;20402;-52
2022/01/18 05:37:55;;;;;;;20.57;6.60;;;;;;;;;;4984366;28;20206;-52
2022/01/18 05:40:23;;;;;;;13.40;6.20;;;;;;;;;;4985129;28;20412;-52
2022/01/18 05:42:49;;;;;;;22.60;8.60;;;;;;;;;;4985663;28;20400;-52
2022/01/18 05:45:15;;;;;;;20.40;7.00;;;;;;;;;;4985338;28;20406;-51
2022/01/18 05:47:41;;;;;;;16.35;6.68;;;;;;;;;;4985497;28;20421;-52
2022/01/18 05:50:08;;;;;;;17.77;9.02;;;;;;;;;;4984972;28;20255;-53
2022/01/18 05:52:34;;;;;;;21.08;6.63;;;;;;;;;;4985431;28;20637;-53
2022/01/18 05:55:00;;;;;;;18.90;6.83;;;;;;;;;;4985435;28;20178;-51
2022/01/18 05:57:26;;;;;;;15.40;6.13;;;;;;;;;;4984225;28;20413;-52
2022/01/18 05:59:54;;;;;;;22.90;6.47;;;;;;;;;;4984451;28;21001;-51
2022/01/18 06:02:37;;;;;;;16.90;7.40;;;;;;;;;;4984867;28;20258;-52
2022/01/18 06:07:48;;;;;;;24.05;7.40;;;;;;;;;;4982721;28;20826;-52
2022/01/18 06:10:14;;;;;;;19.20;7.63;;;;;;;;;;4984188;28;20190;-52
2022/01/18 06:12:41;;;;;;;16.33;7.57;;;;;;;;;;4984763;28;20409;-52
2022/01/18 06:15:07;;;;;;;13.07;7.93;;;;;;;;;;4982598;28;20402;-52
2022/01/18 06:17:33;;;;;;;21.65;8.70;;;;;;;;;;4974536;28;20947;-51
2022/01/18 06:19:59;;;;;;;20.60;8.90;;;;;;;;;;4974190;28;20543;-52
2022/01/18 06:22:25;;;;;;;23.53;9.73;;;;;;;;;;4974456;28;20196;-52
2022/01/18 06:24:51;;;;;;;35.20;12.47;;;;;;;;;;4974506;28;20924;-52
2022/01/18 06:27:17;;;;;;;21.30;12.65;;;;;;;;;;4974380;28;20409;-51
2022/01/18 06:29:43;;;;;;;24.02;12.35;;;;;;;;;;4974085;28;20293;-51
2022/01/18 06:32:09;;;;;;;26.70;12.98;;;;;;;;;;4974280;28;20638;-52
2022/01/18 06:34:35;;;;;;;27.60;11.63;;;;;;;;;;4974230;28;20176;-52
2022/01/18 06:37:01;;;;;;;35.92;13.55;;;;;;;;;;4973222;28;20182;-52
2022/01/18 06:39:27;;;;;;;22.50;12.20;;;;;;;;;;4973847;28;20562;-52
2022/01/18 06:41:53;;;;;;;29.40;12.40;;;;;;;;;;4972768;28;20425;-52
2022/01/18 06:44:19;;;;;;;35.50;13.33;;;;;;;;;;4974133;28;20409;-52
2022/01/18 06:46:45;;;;;;;29.17;13.20;;;;;;;;;;4974067;28;20416;-52
2022/01/18 06:49:11;;;;;;;30.43;14.13;;;;;;;;;;4973601;28;20511;-51
2022/01/18 06:51:37;;;;;;;34.20;15.13;;;;;;;;;;4973953;28;20741;-52
2022/01/18 06:54:03;;;;;;;32.83;14.93;;;;;;;;;;4973737;28;20758;-52
2022/01/18 06:56:29;;;;;;;34.33;15.20;;;;;;;;;;4973880;28;20398;-52
2022/01/18 06:58:56;;;;;;;38.10;13.17;;;;;;;;;;4973432;28;20931;-52
2022/01/18 07:01:22;;;;;;;30.80;12.77;;;;;;;;;;4973656;28;20468;-52
2022/01/18 07:03:48;;;;;;;28.65;14.07;;;;;;;;;;4973554;28;20425;-52
2022/01/18 07:06:17;;;;;;;27.27;13.50;;;;;;;;;;4972772;28;20240;-52
2022/01/18 07:08:43;;;;;;;29.77;14.23;;;;;;;;;;4973640;28;20464;-51
2022/01/18 07:11:09;;;;;;;36.67;16.60;;;;;;;;;;4973581;28;20448;-52
2022/01/18 07:13:35;;;;;;;31.60;16.13;;;;;;;;;;4973654;28;20409;-52
2022/01/18 07:16:01;;;;;;;35.72;16.42;;;;;;;;;;4973599;28;20459;-52
2022/01/18 07:18:28;;;;;;;32.25;15.93;;;;;;;;;;4973346;28;20191;-52
2022/01/18 07:20:54;;;;;;;45.22;17.63;;;;;;;;;;4973086;28;20193;-52
2022/01/18 07:23:20;;;;;;;42.85;16.92;;;;;;;;;;4973457;28;20182;-52
2022/01/18 07:25:48;;;;;;;42.70;17.40;;;;;;;;;;4973329;28;20248;-52
2022/01/18 07:28:15;;;;;;;39.35;17.15;;;;;;;;;;4973309;28;20212;-51
2022/01/18 07:30:41;;;;;;;41.22;18.10;;;;;;;;;;4972448;28;20651;-51
2022/01/18 07:33:07;;;;;;;35.38;16.77;;;;;;;;;;4973134;28;20265;-52
2022/01/18 07:35:34;;;;;;;41.30;18.97;;;;;;;;;;4973049;28;20166;-52
2022/01/18 07:38:04;;;;;;;41.27;18.73;;;;;;;;;;4971480;28;20507;-52
2022/01/18 07:40:31;;;;;;;39.10;17.63;;;;;;;;;;4972848;28;20492;-52
2022/01/18 07:43:00;;;;;;;44.13;20.27;;;;;;;;;;4972895;28;20406;-52
2022/01/18 07:45:26;;;;;;;42.10;18.42;;;;;;;;;;4972271;28;20465;-52
2022/01/18 07:47:52;;;;;;;45.60;20.13;;;;;;;;;;4972790;28;20189;-52
2022/01/18 07:50:18;;;;;;;42.93;18.53;;;;;;;;;;4972532;28;20228;-52
2022/01/18 07:52:44;;;;;;;46.63;18.63;;;;;;;;;;4972919;28;20414;-52
2022/01/18 07:55:11;;;;;;;53.33;20.73;;;;;;;;;;4968945;28;20417;-52
2022/01/18 07:57:41;;;;;;;43.80;18.67;;;;;;;;;;4972545;28;20205;-52
2022/01/18 08:00:07;;;;;;;42.03;19.80;;;;;;;;;;4972342;28;20209;-53
2022/01/18 08:02:36;;;;;;;38.43;19.53;;;;;;;;;;4972584;28;20953;-52
2022/01/18 08:05:02;;;;;;;36.83;18.70;;;;;;;;;;4972663;28;20412;-52
2022/01/18 08:07:28;;;;;;;32.27;16.77;;;;;;;;;;4971489;28;20432;-52
2022/01/18 08:09:54;;;;;;;33.73;17.00;;;;;;;;;;4971290;28;20885;-52
2022/01/18 08:12:20;;;;;;;39.33;18.60;;;;;;;;;;4972836;28;20424;-52
2022/01/18 08:14:47;;;;;;;44.10;18.70;;;;;;;;;;4972668;28;20446;-52
2022/01/18 08:17:13;;;;;;;39.50;20.60;;;;;;;;;;4971843;28;20481;-52
2022/01/18 08:19:39;;;;;;;35.93;18.00;;;;;;;;;;4972155;28;20445;-52
2022/01/18 08:22:05;;;;;;;47.03;22.00;;;;;;;;;;4972342;28;20526;-52
2022/01/18 08:24:31;;;;;;;48.70;19.47;;;;;;;;;;4971864;28;20405;-52
2022/01/18 08:26:57;;;;;;;53.13;22.37;;;;;;;;;;4971331;28;20452;-52
2022/01/18 08:29:23;;;;;;;39.57;19.37;;;;;;;;;;4971924;28;21213;-52
2022/01/18 08:31:49;;;;;;;41.27;21.30;;;;;;;;;;4971926;28;20450;-52
2022/01/18 08:34:15;;;;;;;50.00;19.90;;;;;;;;;;4972182;28;20407;-52
2022/01/18 08:36:41;;;;;;;49.57;19.93;;;;;;;;;;4971335;28;20905;-52
2022/01/18 08:39:08;;;;;;;38.27;21.13;;;;;;;;;;4971619;28;20441;-52
2022/01/18 08:41:34;;;;;;;43.93;18.73;;;;;;;;;;4972241;28;20421;-52
2022/01/18 08:44:01;;;;;;;49.13;19.07;;;;;;;;;;4974492;28;20406;-52
2022/01/18 08:46:28;;;;;;;42.37;17.90;;;;;;;;;;4976198;28;20409;-53
2022/01/18 08:48:54;;;;;;;40.30;18.70;;;;;;;;;;4975251;28;20458;-52
2022/01/18 08:51:20;;;;;;;39.33;16.90;;;;;;;;;;4975923;28;20412;-53
2022/01/18 08:53:50;;;;;;;53.70;19.10;;;;;;;;;;4975910;28;20867;-53
2022/01/18 08:56:17;;;;;;;48.90;18.87;;;;;;;;;;4975958;28;20406;-52
2022/01/18 08:58:43;;;;;;;52.40;19.40;;;;;;;;;;4975771;28;20442;-52
2022/01/18 09:01:09;;;;;;;39.70;19.43;;;;;;;;;;4975711;28;20413;-53
2022/01/18 09:03:35;;;;;;;48.80;20.20;;;;;;;;;;4975844;28;20413;-53
2022/01/18 09:06:04;;;;;;;45.20;19.87;;;;;;;;;;4974996;28;20493;-53
2022/01/18 09:08:30;;;;;;;52.43;21.17;;;;;;;;;;4975607;28;20429;-53
2022/01/18 09:10:56;;;;;;;69.20;22.97;;;;;;;;;;4975685;28;20804;-52
2022/01/18 09:13:22;;;;;;;52.67;21.20;;;;;;;;;;4975896;28;20411;-53
2022/01/18 09:15:49;;;;;;;42.63;21.00;;;;;;;;;;4975920;28;20416;-53
2022/01/18 09:18:15;;;;;;;47.47;20.90;;;;;;;;;;4975787;28;20421;-52
2022/01/18 09:20:41;;;;;;;46.43;21.27;;;;;;;;;;4975359;28;20398;-52
2022/01/18 09:23:07;;;;;;;45.53;20.53;;;;;;;;;;4975518;28;20409;-52
2022/01/18 09:25:34;;;;;;;46.23;21.00;;;;;;;;;;4975614;28;20446;-53
2022/01/18 09:28:00;;;;;;;45.17;21.40;;;;;;;;;;4974330;28;20439;-53
2022/01/18 09:30:27;;;;;;;55.00;18.40;;;;;;;;;;4975205;28;20470;-52
2022/01/18 09:32:53;;;;;;;42.40;18.70;;;;;;;;;;4975310;28;20800;-53
2022/01/18 09:35:20;;;;;;;44.33;19.03;;;;;;;;;;4974812;28;20402;-52
2022/01/18 09:37:46;;;;;;;40.77;19.20;;;;;;;;;;4975390;28;20427;-52
2022/01/18 09:40:18;;;;;;;44.70;19.33;;;;;;;;;;4975007;28;20457;-52
2022/01/18 09:42:44;;;;;;;55.03;21.00;;;;;;;;;;4974346;28;20451;-52
2022/01/18 09:45:12;;;;;;;44.30;18.90;;;;;;;;;;4974762;28;20403;-52
2022/01/18 09:47:39;;;;;;;45.37;18.70;;;;;;;;;;4975088;28;20435;-52
2022/01/18 09:50:06;;;;;;;35.13;17.53;;;;;;;;;;4974482;28;20934;-52
2022/01/18 09:52:32;;;;;;;43.20;18.53;;;;;;;;;;4974973;28;20415;-52
2022/01/18 09:54:58;;;;;;;30.73;18.07;;;;;;;;;;4974775;28;20403;-53
2022/01/18 09:57:24;;;;;;;46.43;17.00;;;;;;;;;;4975012;28;20498;-52
2022/01/18 09:59:50;;;;;;;43.53;16.70;;;;;;;;;;4975046;28;20431;-52
2022/01/18 10:02:16;;;;;;;37.00;17.50;;;;;;;;;;4974755;28;20908;-52
2022/01/18 10:04:43;;;;;;;43.90;16.50;;;;;;;;;;4974629;28;20946;-52
2022/01/18 10:07:10;;;;;;;31.70;16.47;;;;;;;;;;4974134;28;20430;-52
2022/01/18 10:09:36;;;;;;;44.20;16.47;;;;;;;;;;4973578;28;20471;-52
2022/01/18 10:12:06;;;;;;;33.90;16.37;;;;;;;;;;4970641;28;20440;-52
2022/01/18 10:14:31;;;;;;;34.50;15.23;;;;;;;;;;4969811;28;20822;-53
2022/01/18 10:16:58;;;;;;;40.00;16.17;;;;;;;;;;4971931;28;20459;-52
2022/01/18 10:19:36;;;;;;;36.37;15.10;;;;;;;;;;4970333;28;20452;-52
2022/01/18 10:22:12;;;;;;;32.93;17.23;;;;;;;;;;4968942;28;20950;-52
2022/01/18 10:24:38;;;;;;;32.30;18.53;;;;;;;;;;4971954;28;20455;-52
2022/01/18 10:27:04;;;;;;;35.20;15.87;;;;;;;;;;4970446;28;20439;-52
2022/01/18 10:29:41;;;;;;;36.67;18.73;;;;;;;;;;4973749;28;20449;-52
2022/01/18 10:35:05;;;;;;;39.10;15.37;;;;;;;;;;4969601;28;21112;-53
2022/01/18 10:37:33;;;;;;;38.43;18.27;;;;;;;;;;4974169;28;20492;-52
2022/01/18 10:40:13;;;;;;;33.50;16.87;;;;;;;;;;4973670;28;20433;-52
2022/01/18 10:42:39;;;;;;;37.93;17.70;;;;;;;;;;4973878;28;20406;-53
2022/01/18 10:45:06;;;;;;;31.40;16.37;;;;;;;;;;4974104;28;20463;-52
2022/01/18 10:47:32;;;;;;;34.67;15.67;;;;;;;;;;4974285;28;20432;-52
2022/01/18 10:50:06;;;;;;;39.87;16.33;;;;;;;;;;4973801;28;20504;-52
2022/01/18 10:52:32;;;;;;;28.30;14.90;;;;;;;;;;4973769;28;20429;-53
2022/01/18 10:54:59;;;;;;;38.40;17.80;;;;;;;;;;4974058;28;20827;-53
2022/01/18 10:57:26;;;;;;;35.00;16.90;;;;;;;;;;4972625;28;20453;-52
2022/01/18 10:59:56;;;;;;;28.50;14.63;;;;;;;;;;4973494;28;20412;-52
2022/01/18 11:02:22;;;;;;;32.90;15.67;;;;;;;;;;4973652;28;20409;-52
2022/01/18 11:04:50;;;;;;;31.60;16.13;;;;;;;;;;4973635;28;20487;-53
2022/01/18 11:07:17;;;;;;;25.00;13.13;;;;;;;;;;4972683;28;20409;-53
2022/01/18 11:09:44;;;;;;;32.50;13.50;;;;;;;;;;4973327;28;20485;-53
2022/01/18 11:12:11;;;;;;;28.03;13.23;;;;;;;;;;4972684;28;20419;-53
2022/01/18 11:14:39;;;;;;;32.47;13.17;;;;;;;;;;4972504;28;20437;-53
2022/01/18 11:17:06;;;;;;;23.07;12.03;;;;;;;;;;4973502;28;20406;-53
2022/01/18 11:19:35;;;;;;;21.73;12.60;;;;;;;;;;4971286;28;20433;-52
2022/01/18 11:22:04;;;;;;;23.27;11.13;;;;;;;;;;4976316;28;20407;-53
2022/01/18 11:24:31;;;;;;;21.10;11.03;;;;;;;;;;4981541;28;20406;-53
2022/01/18 11:26:57;;;;;;;28.60;12.90;;;;;;;;;;4982253;28;20414;-53
2022/01/18 11:29:25;;;;;;;21.53;12.10;;;;;;;;;;4981241;28;20499;-53
2022/01/18 11:31:52;;;;;;;26.00;12.20;;;;;;;;;;4981293;28;20413;-53
2022/01/18 11:34:37;;;;;;;28.30;12.60;;;;;;;;;;4980128;28;20413;-53
2022/01/18 11:37:17;;;;;;;23.57;11.73;;;;;;;;;;4980931;28;20497;-52
2022/01/18 11:39:43;;;;;;;20.63;11.13;;;;;;;;;;4980644;28;20401;-53
2022/01/18 11:42:13;;;;;;;21.20;11.27;;;;;;;;;;4980630;28;20414;-53
2022/01/18 11:44:40;;;;;;;30.10;11.73;;;;;;;;;;4979758;28;20397;-52
2022/01/18 11:47:06;;;;;;;16.83;10.40;;;;;;;;;;4979656;28;20466;-53
2022/01/18 11:49:34;;;;;;;23.00;12.17;;;;;;;;;;4979715;28;20479;-53
2022/01/18 11:52:03;;;;;;;22.83;10.30;;;;;;;;;;4980724;28;20491;-52
2022/01/18 11:57:27;;;;;;;22.67;13.93;;;;;;;;;;4979755;28;20948;-53
2022/01/18 11:59:53;;;;;;;21.27;11.43;;;;;;;;;;4978793;28;20436;-53
2022/01/18 12:02:30;;;;;;;18.17;10.27;;;;;;;;;;4977717;28;20818;-53
2022/01/18 12:04:57;;;;;;;24.37;10.90;;;;;;;;;;4978083;28;20773;-53
2022/01/18 12:07:38;;;;;;;21.60;10.10;;;;;;;;;;4979096;28;20545;-53
2022/01/18 12:10:06;;;;;;;23.47;10.30;;;;;;;;;;4978028;28;20459;-53
2022/01/18 12:12:41;;;;;;;31.83;11.27;;;;;;;;;;4978884;28;20428;-52
2022/01/18 12:15:16;;;;;;;20.80;10.30;;;;;;;;;;4976897;28;20423;-52
2022/01/18 12:18:02;;;;;;;22.47;12.40;;;;;;;;;;4977775;28;20449;-52
2022/01/18 12:20:34;;;;;;;30.53;12.50;;;;;;;;;;4974003;28;21040;-53
2022/01/18 12:23:07;;;;;;;23.03;10.43;;;;;;;;;;4978435;28;20429;-53
2022/01/18 12:25:36;;;;;;;21.93;9.50;;;;;;;;;;4978267;28;20513;-53
2022/01/18 12:28:32;;;;;;;26.20;10.60;;;;;;;;;;4966381;28;20493;-52
2022/01/18 12:31:06;;;;;;;25.27;9.77;;;;;;;;;;4973274;28;20465;-53
2022/01/18 12:33:45;;;;;;;18.10;8.50;;;;;;;;;;4977876;28;20421;-52
2022/01/18 12:36:30;;;;;;;24.47;10.70;;;;;;;;;;4977070;28;20467;-52
2022/01/18 12:38:59;;;;;;;24.97;10.80;;;;;;;;;;4978298;28;20428;-53
2022/01/18 12:41:57;;;;;;;27.33;7.70;;;;;;;;;;4979454;28;20417;-52
2022/01/18 12:44:24;;;;;;;24.10;8.30;;;;;;;;;;4967852;28;20433;-53
2022/01/18 12:46:51;;;;;;;22.70;8.13;;;;;;;;;;4979857;28;20402;-53
2022/01/18 12:49:18;;;;;;;14.10;8.17;;;;;;;;;;4977214;28;20512;-53
2022/01/18 12:51:44;;;;;;;16.63;7.27;;;;;;;;;;4980028;28;20405;-53
2022/01/18 12:54:10;;;;;;;15.80;6.83;;;;;;;;;;4980326;28;20913;-52
2022/01/18 12:56:36;;;;;;;20.27;7.47;;;;;;;;;;4980767;28;20519;-52
2022/01/18 12:59:04;;;;;;;21.80;8.90;;;;;;;;;;4980939;28;20472;-53
2022/01/18 13:01:31;;;;;;;22.90;8.23;;;;;;;;;;4981661;28;20414;-52
2022/01/18 13:03:57;;;;;;;12.80;7.83;;;;;;;;;;4979795;28;20422;-52
2022/01/18 13:06:24;;;;;;;15.83;7.87;;;;;;;;;;4981448;28;20449;-52
2022/01/18 13:09:00;;;;;;;16.70;8.60;;;;;;;;;;4980143;28;20464;-53
2022/01/18 13:11:30;;;;;;;20.43;9.00;;;;;;;;;;4979234;28;20488;-53
2022/01/18 13:27:23;;;;;;;16.10;7.30;;;;;;;;;;4981083;28;20452;-53
2022/01/18 13:29:52;;;;;;;11.43;6.70;;;;;;;;;;4983957;28;20515;-53
2022/01/18 13:32:21;;;;;;;17.73;7.57;;;;;;;;;;4985221;28;20401;-53
2022/01/18 13:34:51;;;;;;;17.83;8.20;;;;;;;;;;4985984;28;20440;-53
2022/01/18 13:37:19;;;;;;;16.10;8.17;;;;;;;;;;4985481;28;20409;-52
2022/01/18 13:39:51;;;;;;;21.03;8.40;;;;;;;;;;4985501;28;20414;-53
2022/01/18 13:42:19;;;;;;;14.90;7.13;;;;;;;;;;4985915;28;20435;-52
2022/01/18 13:45:04;;;;;;;14.37;8.17;;;;;;;;;;4985598;28;20448;-52
2022/01/18 13:47:37;;;;;;;13.00;7.13;;;;;;;;;;4984729;28;20415;-52
2022/01/18 13:50:03;;;;;;;11.67;7.37;;;;;;;;;;4984691;28;20484;-53
2022/01/18 13:52:31;;;;;;;12.47;6.50;;;;;;;;;;4985031;28;20417;-53
2022/01/18 13:54:57;;;;;;;18.13;6.90;;;;;;;;;;4985306;28;20397;-52
2022/01/18 13:57:23;;;;;;;11.63;6.80;;;;;;;;;;4985701;28;20408;-52
2022/01/18 13:59:50;;;;;;;24.30;9.20;;;;;;;;;;4983525;28;20444;-53
2022/01/18 14:02:17;;;;;;;16.57;8.37;;;;;;;;;;4984847;28;20505;-53
2022/01/18 14:04:44;;;;;;;14.53;8.20;;;;;;;;;;4985638;28;20456;-53
2022/01/18 14:07:10;;;;;;;16.40;8.00;;;;;;;;;;4985345;28;20417;-53
2022/01/18 14:09:36;;;;;;;16.00;9.03;;;;;;;;;;4983944;28;20467;-52
2022/01/18 14:12:03;;;;;;;17.37;7.30;;;;;;;;;;4982968;28;20419;-53
2022/01/18 14:14:31;;;;;;;20.50;7.90;;;;;;;;;;4983796;28;20477;-53
2022/01/18 14:17:08;;;;;;;11.63;6.37;;;;;;;;;;4985180;28;20401;-53
2022/01/18 14:19:35;;;;;;;21.33;7.93;;;;;;;;;;4984075;28;20515;-53
2022/01/18 14:22:23;;;;;;;14.30;7.60;;;;;;;;;;4985377;28;20413;-53
2022/01/18 14:24:50;;;;;;;16.70;6.93;;;;;;;;;;4985145;28;20501;-52
2022/01/18 14:27:25;;;;;;;12.80;7.93;;;;;;;;;;4985387;28;20406;-52
2022/01/18 14:29:52;;;;;;;18.70;7.97;;;;;;;;;;4984631;28;20455;-53
2022/01/18 14:32:25;;;;;;;17.47;8.30;;;;;;;;;;4984609;28;21034;-53
2022/01/18 14:34:52;;;;;;;14.70;8.43;;;;;;;;;;4985266;28;20581;-53
2022/01/18 14:37:18;;;;;;;17.97;9.20;;;;;;;;;;4984640;28;20464;-52
2022/01/18 14:40:01;;;;;;;16.33;8.63;;;;;;;;;;4984976;28;20433;-52
2022/01/18 14:42:40;;;;;;;15.13;8.40;;;;;;;;;;4985562;28;20409;-52
2022/01/18 14:45:19;;;;;;;25.20;7.50;;;;;;;;;;4985603;28;20483;-52
2022/01/18 14:47:46;;;;;;;16.40;7.57;;;;;;;;;;4985341;28;20454;-52
2022/01/18 14:50:13;;;;;;;19.00;7.67;;;;;;;;;;4983352;28;20464;-52
2022/01/18 14:52:39;;;;;;;17.83;7.77;;;;;;;;;;4985161;28;20413;-53
2022/01/18 14:55:08;;;;;;;22.10;8.83;;;;;;;;;;4984303;28;20425;-51
2022/01/18 14:57:35;;;;;;;15.17;7.37;;;;;;;;;;4973624;28;21293;-51
2022/01/18 15:00:02;;;;;;;19.80;8.73;;;;;;;;;;4973648;28;20905;-52
2022/01/18 15:02:30;;;;;;;18.03;8.07;;;;;;;;;;4973810;28;20439;-51
2022/01/18 15:04:56;;;;;;;16.00;7.90;;;;;;;;;;4973772;28;20443;-51
2022/01/18 15:07:22;;;;;;;15.03;8.13;;;;;;;;;;4973693;28;20416;-51
2022/01/18 15:09:48;;;;;;;14.50;7.47;;;;;;;;;;4973408;28;20807;-52
2022/01/18 15:12:14;;;;;;;14.40;7.97;;;;;;;;;;4973653;28;20527;-52
2022/01/18 15:14:40;;;;;;;10.27;7.20;;;;;;;;;;4973639;28;20534;-51
2022/01/18 15:17:06;;;;;;;12.57;7.57;;;;;;;;;;4973391;28;20496;-51
2022/01/18 15:19:36;;;;;;;16.67;7.57;;;;;;;;;;4972287;28;21264;-51
2022/01/18 15:22:02;;;;;;;11.97;6.77;;;;;;;;;;4973444;28;20838;-51
2022/01/18 15:24:28;;;;;;;18.70;6.60;;;;;;;;;;4973193;28;20413;-51
2022/01/18 15:26:59;;;;;;;19.00;8.40;;;;;;;;;;4973330;28;20887;-51
2022/01/18 15:29:25;;;;;;;14.30;7.03;;;;;;;;;;4973051;28;20456;-51
2022/01/18 15:31:51;;;;;;;12.93;7.60;;;;;;;;;;4973075;28;20409;-51
2022/01/18 15:34:17;;;;;;;17.80;6.50;;;;;;;;;;4973280;28;20913;-51
2022/01/18 15:36:43;;;;;;;14.40;7.40;;;;;;;;;;4972234;28;20401;-51
2022/01/18 15:39:09;;;;;;;18.90;7.83;;;;;;;;;;4972645;28;20428;-51
2022/01/18 15:41:35;;;;;;;12.93;7.00;;;;;;;;;;4973039;28;20415;-52
2022/01/18 15:44:01;;;;;;;10.83;6.70;;;;;;;;;;4972975;28;20499;-51
2022/01/18 15:46:27;;;;;;;11.63;7.03;;;;;;;;;;4972971;28;20478;-51
2022/01/18 15:48:53;;;;;;;15.63;8.00;;;;;;;;;;4972597;28;20431;-53
2022/01/18 15:51:20;;;;;;;14.97;8.70;;;;;;;;;;4972153;28;20988;-51
2022/01/18 15:53:46;;;;;;;19.23;12.73;;;;;;;;;;4972429;28;20796;-51